createdAt,value
2023-05-01T00:01:05.257Z,71.22
2023-05-01T00:03:32.833Z,72.07
2023-05-01T00:06:01.578Z,71.73
2023-05-01T00:08:28.153Z,71.81
2023-05-01T00:10:54.726Z,72.76
2023-05-01T00:13:24.430Z,72.72
2023-05-01T00:15:51.535Z,73.19
2023-05-01T00:20:53.239Z,73.13
2023-05-01T00:31:18.918Z,74.12
2023-05-01T00:33:45.422Z,74.12
2023-05-01T00:38:47.156Z,74.43
2023-05-01T00:41:13.684Z,74.66
2023-05-01T00:43:40.206Z,75.26
2023-05-01T00:46:08.148Z,74.65
2023-05-01T00:48:35.385Z,75.19
2023-05-01T00:51:05.411Z,74.87
2023-05-01T00:53:34.099Z,75.55
2023-05-01T00:56:00.919Z,74.72
2023-05-01T00:58:27.773Z,75.02
2023-05-01T01:00:55.274Z,74.79
2023-05-01T01:09:09.940Z,73.23
2023-05-01T01:17:05.978Z,72.77
2023-05-01T01:22:13.716Z,72.50
2023-05-01T01:25:12.719Z,72.42
2023-05-01T01:27:57.984Z,71.83
2023-05-01T01:30:49.144Z,71.89
2023-05-01T01:33:43.401Z,72.17
2023-05-01T01:36:19.992Z,71.31
2023-05-01T01:38:52.537Z,72.14
2023-05-01T01:41:27.980Z,71.35
2023-05-01T01:44:22.504Z,71.79
2023-05-01T01:46:52.897Z,71.25
2023-05-01T01:49:24.813Z,71.71
2023-05-01T01:51:55.206Z,71.15
2023-05-01T01:54:35.557Z,71.39
2023-05-01T01:57:04.498Z,71.93
2023-05-01T01:59:33.800Z,71.96
2023-05-01T02:02:02.115Z,71.51
2023-05-01T02:04:29.987Z,71.05
2023-05-01T02:06:58.391Z,71.64
2023-05-01T02:09:27.388Z,71.32
2023-05-01T02:11:57.498Z,71.71
2023-05-01T02:14:26.883Z,71.32
2023-05-01T02:16:54.871Z,71.83
2023-05-01T02:19:22.368Z,71.06
2023-05-01T02:21:50.234Z,71.27
2023-05-01T02:24:18.252Z,71.48
2023-05-01T02:26:49.991Z,71.58
2023-05-01T02:29:16.948Z,72.13
2023-05-01T02:31:43.522Z,71.57
2023-05-01T02:34:10.060Z,71.86
2023-05-01T02:36:36.524Z,71.83
2023-05-01T02:39:03.102Z,71.79
2023-05-01T02:41:32.062Z,72.10
2023-05-01T02:44:04.212Z,72.98
2023-05-01T02:46:33.319Z,72.82
2023-05-01T02:49:02.718Z,73.05
2023-05-01T02:51:31.786Z,72.82
2023-05-01T02:53:59.426Z,73.52
2023-05-01T02:56:29.536Z,73.39
2023-05-01T02:58:56.183Z,73.49
2023-05-01T03:01:24.064Z,72.54
2023-05-01T03:03:50.567Z,72.65
2023-05-01T03:06:17.257Z,72.81
2023-05-01T03:08:44.277Z,72.81
2023-05-01T03:11:10.850Z,72.14
2023-05-01T03:13:37.575Z,71.43
2023-05-01T03:16:04.717Z,71.33
2023-05-01T03:18:31.296Z,71.36
2023-05-01T03:20:57.829Z,72.03
2023-05-01T03:23:24.696Z,71.70
2023-05-01T03:26:06.360Z,71.28
2023-05-01T03:28:33.726Z,72.08
2023-05-01T03:31:00.847Z,71.06
2023-05-01T03:33:32.717Z,71.42
2023-05-01T03:36:04.017Z,70.71
2023-05-01T03:38:31.610Z,70.37
2023-05-01T03:40:58.615Z,70.13
2023-05-01T03:43:25.293Z,70.70
2023-05-01T03:45:52.400Z,70.52
2023-05-01T03:48:19.458Z,70.03
2023-05-01T03:50:46.568Z,69.45
2023-05-01T03:53:13.871Z,69.47
2023-05-01T03:55:40.571Z,68.95
2023-05-01T03:58:07.291Z,68.45
2023-05-01T04:00:34.256Z,69.15
2023-05-01T04:03:00.943Z,69.04
2023-05-01T04:05:27.534Z,67.66
2023-05-01T04:07:54.041Z,68.72
2023-05-01T04:10:20.646Z,69.13
2023-05-01T04:12:47.066Z,68.32
2023-05-01T04:15:15.416Z,67.73
2023-05-01T04:17:43.834Z,68.54
2023-05-01T04:20:11.064Z,68.10
2023-05-01T04:22:37.708Z,68.72
2023-05-01T04:25:04.766Z,68.20
2023-05-01T04:27:31.757Z,67.76
2023-05-01T04:29:58.772Z,68.44
2023-05-01T04:32:25.537Z,67.61
2023-05-01T04:34:52.160Z,67.00
2023-05-01T04:37:18.790Z,67.67
2023-05-01T04:39:45.332Z,67.52
2023-05-01T04:42:11.770Z,66.79
2023-05-01T04:44:38.381Z,66.30
2023-05-01T04:47:04.957Z,66.34
2023-05-01T04:49:32.323Z,65.98
2023-05-01T04:51:58.764Z,66.74
2023-05-01T04:54:25.609Z,66.31
2023-05-01T04:56:52.348Z,66.03
2023-05-01T04:59:18.838Z,64.94
2023-05-01T05:01:45.236Z,65.29
2023-05-01T05:04:11.761Z,65.34
2023-05-01T05:06:38.351Z,64.99
2023-05-01T05:09:04.797Z,65.34
2023-05-01T05:11:31.264Z,65.27
2023-05-01T05:13:57.681Z,64.41
2023-05-01T05:16:24.130Z,63.88
2023-05-01T05:18:51.045Z,62.31
2023-05-01T05:21:17.508Z,63.74
2023-05-01T05:23:44.265Z,62.55
2023-05-01T05:26:10.692Z,62.18
2023-05-01T05:28:37.077Z,61.96
2023-05-01T05:31:04.066Z,61.52
2023-05-01T05:33:30.655Z,61.32
2023-05-01T05:36:00.108Z,61.41
2023-05-01T05:38:26.683Z,60.95
2023-05-01T05:40:54.238Z,60.64
2023-05-01T05:43:20.756Z,60.74
2023-05-01T05:45:47.279Z,59.59
2023-05-01T05:48:14.384Z,59.40
2023-05-01T05:50:40.964Z,58.03
2023-05-01T05:53:07.521Z,57.67
2023-05-01T05:55:33.994Z,56.97
2023-05-01T05:58:00.670Z,57.08
2023-05-01T06:00:27.294Z,56.71
2023-05-01T06:02:53.833Z,56.71
2023-05-01T06:05:20.491Z,55.85
2023-05-01T06:07:47.090Z,55.25
2023-05-01T06:10:13.601Z,54.75
2023-05-01T06:12:43.243Z,54.79
2023-05-01T06:15:17.044Z,55.98
2023-05-01T06:17:43.583Z,55.80
2023-05-01T06:20:10.960Z,55.98
2023-05-01T06:22:37.428Z,55.41
2023-05-01T06:25:04.299Z,54.62
2023-05-01T06:27:30.749Z,54.65
2023-05-01T06:29:57.362Z,54.87
2023-05-01T06:32:26.488Z,55.12
2023-05-01T06:34:52.953Z,54.07
2023-05-01T06:37:19.494Z,54.28
2023-05-01T06:39:47.409Z,54.48
2023-05-01T06:42:16.115Z,53.82
2023-05-01T06:44:43.233Z,53.81
2023-05-01T06:47:09.944Z,53.41
2023-05-01T06:49:36.553Z,53.70
2023-05-01T06:52:03.392Z,53.12
2023-05-01T06:54:29.935Z,53.66
2023-05-01T06:56:57.913Z,53.07
2023-05-01T06:59:25.389Z,53.48
2023-05-01T07:01:52.782Z,53.07
2023-05-01T07:04:19.305Z,53.14
2023-05-01T07:06:46.105Z,53.33
2023-05-01T07:09:13.892Z,53.87
2023-05-01T07:11:40.578Z,54.28
2023-05-01T07:14:06.986Z,54.94
2023-05-01T07:16:36.040Z,53.81
2023-05-01T07:19:02.762Z,53.15
2023-05-01T07:21:29.237Z,53.59
2023-05-01T07:23:55.612Z,52.71
2023-05-01T07:26:22.165Z,52.32
2023-05-01T07:28:48.554Z,52.43
2023-05-01T07:31:15.409Z,50.43
2023-05-01T07:33:42.410Z,50.53
2023-05-01T07:36:09.279Z,50.31
2023-05-01T07:38:35.715Z,50.08
2023-05-01T07:41:02.256Z,50.07
2023-05-01T07:43:31.040Z,50.48
2023-05-01T07:45:58.897Z,50.04
2023-05-01T07:48:26.787Z,49.56
2023-05-01T07:51:02.387Z,48.87
2023-05-01T07:53:28.995Z,49.18
2023-05-01T07:56:08.641Z,49.40
2023-05-01T07:58:36.986Z,49.43
2023-05-01T08:01:06.029Z,49.19
2023-05-01T08:03:32.799Z,48.54
2023-05-01T08:05:59.620Z,48.30
2023-05-01T08:08:26.196Z,47.99
2023-05-01T08:10:52.969Z,48.06
2023-05-01T08:13:19.445Z,48.37
2023-05-01T08:15:49.140Z,48.08
2023-05-01T08:18:20.221Z,47.55
2023-05-01T08:20:50.176Z,47.64
2023-05-01T08:23:17.465Z,47.57
2023-05-01T08:25:50.726Z,46.46
2023-05-01T08:28:20.632Z,47.09
2023-05-01T08:30:51.547Z,45.67
2023-05-01T08:33:19.347Z,46.31
2023-05-01T08:35:46.030Z,45.94
2023-05-01T08:38:12.573Z,45.58
2023-05-01T08:40:41.118Z,45.33
2023-05-01T08:43:07.675Z,44.61
2023-05-01T08:45:37.522Z,44.87
2023-05-01T08:48:09.712Z,44.60
2023-05-01T08:50:42.020Z,44.87
2023-05-01T08:53:12.213Z,44.56
2023-05-01T08:55:46.038Z,44.06
2023-05-01T08:58:13.679Z,42.92
2023-05-01T09:00:42.039Z,43.23
2023-05-01T09:03:12.038Z,43.78
2023-05-01T09:05:41.490Z,43.03
2023-05-01T09:08:07.948Z,43.39
2023-05-01T09:10:44.275Z,42.49
2023-05-01T09:13:11.154Z,42.50
2023-05-01T09:15:37.895Z,42.57
2023-05-01T09:18:04.628Z,42.35
2023-05-01T09:20:32.566Z,42.76
2023-05-01T09:22:59.180Z,43.35
2023-05-01T09:25:26.782Z,43.88
2023-05-01T09:27:56.922Z,43.85
2023-05-01T09:30:39.103Z,43.37
2023-05-01T09:33:06.541Z,42.52
2023-05-01T09:35:34.090Z,43.30
2023-05-01T09:38:00.766Z,42.72
2023-05-01T09:40:28.261Z,42.78
2023-05-01T09:42:58.188Z,42.71
2023-05-01T09:45:26.783Z,41.40
2023-05-01T09:48:10.845Z,40.94
2023-05-01T09:50:38.523Z,39.72
2023-05-01T09:53:06.510Z,38.61
2023-05-01T09:55:34.267Z,38.32
2023-05-01T09:58:00.838Z,37.76
2023-05-01T10:00:27.576Z,36.91
2023-05-01T10:02:54.359Z,35.51
2023-05-01T10:05:21.052Z,34.79
2023-05-01T10:07:59.494Z,33.86
2023-05-01T10:10:26.215Z,33.16
2023-05-01T10:12:52.748Z,32.39
2023-05-01T10:15:26.163Z,31.97
2023-05-01T10:17:54.768Z,30.75
2023-05-01T10:20:21.805Z,30.98
2023-05-01T10:22:49.096Z,30.53
2023-05-01T10:25:17.625Z,30.24
2023-05-01T10:27:44.239Z,30.02
2023-05-01T10:30:11.182Z,30.26
2023-05-01T10:32:39.371Z,29.94
2023-05-01T10:35:11.534Z,29.58
2023-05-01T10:37:46.434Z,28.79
2023-05-01T10:40:37.666Z,28.02
2023-05-01T10:43:28.567Z,27.82
2023-05-01T10:46:16.771Z,27.72
2023-05-01T10:48:46.293Z,27.26
2023-05-01T10:51:17.848Z,26.95
2023-05-01T10:53:49.548Z,26.37
2023-05-01T10:56:23.853Z,25.80
2023-05-01T10:58:53.144Z,25.47
2023-05-01T11:01:51.785Z,25.11
2023-05-01T11:04:30.708Z,24.73
2023-05-01T11:07:05.682Z,24.90
2023-05-01T11:09:54.625Z,24.89
2023-05-01T11:12:46.216Z,25.06
2023-05-01T11:15:25.263Z,24.88
2023-05-01T11:17:52.395Z,25.11
2023-05-01T11:20:24.994Z,24.98
2023-05-01T11:22:55.773Z,24.40
2023-05-01T11:25:30.569Z,23.63
2023-05-01T11:28:01.134Z,23.84
2023-05-01T11:30:37.648Z,23.78
2023-05-01T11:33:05.691Z,22.70
2023-05-01T11:35:33.325Z,22.53
2023-05-01T11:38:00.293Z,23.23
2023-05-01T11:40:28.577Z,23.04
2023-05-01T11:43:06.041Z,23.71
2023-05-01T11:45:33.835Z,23.48
2023-05-01T11:48:03.661Z,23.28
2023-05-01T11:50:37.718Z,22.69
2023-05-01T11:53:18.771Z,23.57
2023-05-01T11:55:46.135Z,23.24
2023-05-01T12:00:42.002Z,24.68
2023-05-01T12:03:10.327Z,24.51
2023-05-01T12:05:42.802Z,24.32
2023-05-01T12:08:11.322Z,22.86
2023-05-01T12:10:42.656Z,22.62
2023-05-01T12:13:11.115Z,20.47
2023-05-01T12:15:40.712Z,20.42
2023-05-01T12:18:07.827Z,21.47
2023-05-01T12:20:41.496Z,21.24
2023-05-01T12:23:13.382Z,22.33
2023-05-01T12:25:40.977Z,22.59
2023-05-01T12:28:18.248Z,23.89
2023-05-01T12:30:46.157Z,25.43
2023-05-01T12:33:20.338Z,25.53
2023-05-01T12:35:49.476Z,26.24
2023-05-01T12:38:20.977Z,28.24
2023-05-01T12:40:59.441Z,28.84
2023-05-01T12:43:44.550Z,30.65
2023-05-01T12:46:15.801Z,30.80
2023-05-01T12:48:42.635Z,31.13
2023-05-01T12:51:09.161Z,28.54
2023-05-01T12:53:43.912Z,28.26
2023-05-01T12:56:22.836Z,25.40
2023-05-01T12:58:51.028Z,23.37
2023-05-01T13:01:28.373Z,22.56
2023-05-01T13:03:58.026Z,22.38
2023-05-01T13:06:34.175Z,22.62
2023-05-01T13:09:10.487Z,24.18
2023-05-01T13:11:38.190Z,25.20
2023-05-01T13:14:08.932Z,27.17
2023-05-01T13:16:45.369Z,27.58
2023-05-01T13:19:13.144Z,27.10
2023-05-01T13:21:50.542Z,26.03
2023-05-01T13:24:16.992Z,25.35
2023-05-01T13:26:45.123Z,22.74
2023-05-01T13:29:15.077Z,20.68
2023-05-01T13:31:45.651Z,20.77
2023-05-01T13:34:17.272Z,19.89
2023-05-01T13:36:44.156Z,20.02
2023-05-01T13:39:11.761Z,19.83
2023-05-01T13:41:42.304Z,19.76
2023-05-01T13:44:08.758Z,20.73
2023-05-01T13:46:36.272Z,20.65
2023-05-01T13:49:07.975Z,20.67
2023-05-01T13:51:37.874Z,22.92
2023-05-01T13:54:04.698Z,24.37
2023-05-01T13:56:32.377Z,24.89
2023-05-01T13:59:01.964Z,22.21
2023-05-01T14:01:28.391Z,20.73
2023-05-01T14:04:00.292Z,19.37
2023-05-01T14:06:28.658Z,21.98
2023-05-01T14:08:58.493Z,24.61
2023-05-01T14:11:24.976Z,25.85
2023-05-01T14:13:51.533Z,27.35
2023-05-01T14:16:25.038Z,27.69
2023-05-01T14:18:54.787Z,28.86
2023-05-01T14:21:22.778Z,28.25
2023-05-01T14:23:49.419Z,29.79
2023-05-01T14:26:18.133Z,30.09
2023-05-01T14:28:46.330Z,30.76
2023-05-01T14:31:23.853Z,31.45
2023-05-01T14:34:02.362Z,31.95
2023-05-01T14:36:33.192Z,32.64
2023-05-01T14:39:01.396Z,33.46
2023-05-01T14:41:29.410Z,33.43
2023-05-01T14:43:56.421Z,34.65
2023-05-01T14:46:29.153Z,35.90
2023-05-01T14:48:55.717Z,36.38
2023-05-01T14:51:22.586Z,36.83
2023-05-01T14:53:49.036Z,36.74
2023-05-01T14:56:15.606Z,36.71
2023-05-01T14:58:42.221Z,36.82
2023-05-01T15:01:08.660Z,37.59
2023-05-01T15:03:42.160Z,37.55
2023-05-01T15:06:09.425Z,37.78
2023-05-01T15:08:36.477Z,36.27
2023-05-01T15:11:02.889Z,36.66
2023-05-01T15:13:29.246Z,37.27
2023-05-01T15:15:56.097Z,36.78
2023-05-01T15:18:22.678Z,37.11
2023-05-01T15:20:49.128Z,35.43
2023-05-01T15:23:15.457Z,35.68
2023-05-01T15:25:44.085Z,34.97
2023-05-01T15:28:10.611Z,35.47
2023-05-01T15:30:36.960Z,35.84
2023-05-01T15:33:05.732Z,35.71
2023-05-01T15:35:32.659Z,36.35
2023-05-01T15:37:58.954Z,36.26
2023-05-01T15:40:25.280Z,36.32
2023-05-01T15:42:51.860Z,36.23
2023-05-01T15:45:18.297Z,32.94
2023-05-01T15:47:44.928Z,30.11
2023-05-01T15:50:11.972Z,28.69
2023-05-01T15:52:38.585Z,27.39
2023-05-01T15:55:05.528Z,25.53
2023-05-01T15:57:32.660Z,25.24
2023-05-01T15:59:59.238Z,24.63
2023-05-01T16:02:29.259Z,24.78
2023-05-01T16:04:55.653Z,25.79
2023-05-01T16:07:22.015Z,27.18
2023-05-01T16:09:49.145Z,28.97
2023-05-01T16:12:15.502Z,31.38
2023-05-01T16:14:42.187Z,32.84
2023-05-01T16:17:08.824Z,33.76
2023-05-01T16:19:38.307Z,35.02
2023-05-01T16:22:05.645Z,36.60
2023-05-01T16:24:35.347Z,36.81
2023-05-01T16:27:02.066Z,37.09
2023-05-01T16:29:28.794Z,37.70
2023-05-01T16:31:55.131Z,38.35
2023-05-01T16:34:23.807Z,38.38
2023-05-01T16:36:50.182Z,37.71
2023-05-01T16:39:19.054Z,38.19
2023-05-01T16:41:46.253Z,38.27
2023-05-01T16:44:13.196Z,38.68
2023-05-01T16:46:41.752Z,38.35
2023-05-01T16:49:11.603Z,37.89
2023-05-01T16:51:38.786Z,37.47
2023-05-01T16:54:05.134Z,36.84
2023-05-01T16:56:31.577Z,36.63
2023-05-01T16:58:58.685Z,36.88
2023-05-01T17:01:25.492Z,36.79
2023-05-01T17:03:51.909Z,36.74
2023-05-01T17:11:45.131Z,37.39
2023-05-01T17:14:11.844Z,37.67
2023-05-01T17:16:38.251Z,41.94
2023-05-01T17:19:08.830Z,43.88
2023-05-01T17:21:35.579Z,45.19
2023-05-01T17:24:02.610Z,46.25
2023-05-01T17:26:28.960Z,47.98
2023-05-01T17:28:55.263Z,48.86
2023-05-01T17:31:22.683Z,49.01
2023-05-01T17:33:49.319Z,49.84
2023-05-01T17:36:15.730Z,50.28
2023-05-01T17:38:42.119Z,51.01
2023-05-01T17:41:08.422Z,51.82
2023-05-01T17:43:34.814Z,52.35
2023-05-01T17:46:01.321Z,52.82
2023-05-01T17:48:27.728Z,54.04
2023-05-01T17:50:55.784Z,54.53
2023-05-01T17:53:23.268Z,55.37
2023-05-01T17:55:49.714Z,55.54
2023-05-01T17:58:16.201Z,54.75
2023-05-01T18:00:42.597Z,55.32
2023-05-01T18:03:09.028Z,55.42
2023-05-01T18:05:35.609Z,56.17
2023-05-01T18:08:02.087Z,56.84
2023-05-01T18:10:31.173Z,56.98
2023-05-01T18:12:58.194Z,57.29
2023-05-01T18:15:24.727Z,57.79
2023-05-01T18:17:51.540Z,58.13
2023-05-01T18:20:17.925Z,58.67
2023-05-01T18:22:44.493Z,59.29
2023-05-01T18:25:11.206Z,59.72
2023-05-01T18:27:38.188Z,60.02
2023-05-01T18:30:05.186Z,60.02
2023-05-01T18:32:46.377Z,60.57
2023-05-01T18:35:14.417Z,60.37
2023-05-01T18:37:42.434Z,60.77
2023-05-01T18:40:09.693Z,60.76
2023-05-01T18:42:36.298Z,61.33
2023-05-01T18:45:03.985Z,61.14
2023-05-01T18:47:32.310Z,61.10
2023-05-01T18:49:59.213Z,61.47
2023-05-01T18:52:25.941Z,61.70
2023-05-01T18:54:52.262Z,61.69
2023-05-01T18:57:18.761Z,61.75
2023-05-01T18:59:45.280Z,61.99
2023-05-01T19:02:11.760Z,62.45
2023-05-01T19:04:49.377Z,62.75
2023-05-01T19:07:22.857Z,62.89
2023-05-01T19:09:49.437Z,63.36
2023-05-01T19:12:16.452Z,63.35
2023-05-01T19:14:42.837Z,63.41
2023-05-01T19:17:09.205Z,63.20
2023-05-01T19:19:35.496Z,63.33
2023-05-01T19:22:01.771Z,63.55
2023-05-01T19:24:28.185Z,63.64
2023-05-01T19:26:54.603Z,63.57
2023-05-01T19:29:23.725Z,63.64
2023-05-01T19:31:50.723Z,60.69
2023-05-01T19:34:17.083Z,60.43
2023-05-01T19:36:43.451Z,59.73
2023-05-01T19:39:10.174Z,58.27
2023-05-01T19:41:36.974Z,57.32
2023-05-01T19:44:03.418Z,56.87
2023-05-01T19:46:29.860Z,56.56
2023-05-01T19:48:56.252Z,56.73
2023-05-01T19:51:22.706Z,56.06
2023-05-01T19:53:49.034Z,55.04
2023-05-01T19:56:15.351Z,54.36
2023-05-01T19:58:41.980Z,54.54
2023-05-01T20:01:11.779Z,54.57
2023-05-01T20:03:38.503Z,54.44
2023-05-01T20:06:06.303Z,54.84
2023-05-01T20:08:33.199Z,55.10
2023-05-01T20:11:00.128Z,55.44
2023-05-01T20:13:26.765Z,55.08
2023-05-01T20:15:53.078Z,55.14
2023-05-01T20:18:19.500Z,54.62
2023-05-01T20:20:45.832Z,54.83
2023-05-01T20:23:12.988Z,54.75
2023-05-01T20:25:39.785Z,54.35
2023-05-01T20:28:08.849Z,54.71
2023-05-01T20:30:40.003Z,54.81
2023-05-01T20:33:07.775Z,54.59
2023-05-01T20:35:34.669Z,54.44
2023-05-01T20:38:01.987Z,54.32
2023-05-01T20:40:28.972Z,54.20
2023-05-01T20:42:55.565Z,54.60
2023-05-01T20:45:22.106Z,54.61
2023-05-01T20:47:48.827Z,54.81
2023-05-01T20:50:17.159Z,55.46
2023-05-01T20:52:46.492Z,56.29
2023-05-01T20:55:14.039Z,58.25
2023-05-01T20:57:40.481Z,59.46
2023-05-01T21:00:08.006Z,60.79
2023-05-01T21:02:37.376Z,61.61
2023-05-01T21:05:04.050Z,62.06
2023-05-01T21:07:30.550Z,61.70
2023-05-01T21:09:57.096Z,62.29
2023-05-01T21:12:23.548Z,62.60
2023-05-01T21:14:50.097Z,62.89
2023-05-01T21:17:18.188Z,62.83
2023-05-01T21:19:46.171Z,63.77
2023-05-01T21:22:17.373Z,65.77
2023-05-01T21:24:45.144Z,64.53
2023-05-01T21:27:12.345Z,65.67
2023-05-01T21:29:39.817Z,65.15
2023-05-01T21:32:07.201Z,65.28
2023-05-01T21:34:33.927Z,64.84
2023-05-01T21:37:00.308Z,65.06
2023-05-01T21:39:26.781Z,63.57
2023-05-01T21:41:53.108Z,63.90
2023-05-01T21:44:19.469Z,64.55
2023-05-01T21:46:45.797Z,64.22
2023-05-01T21:49:12.551Z,64.56
2023-05-01T21:51:42.275Z,65.34
2023-05-01T21:54:08.633Z,65.24
2023-05-01T21:56:34.989Z,65.61
2023-05-01T21:59:02.005Z,65.34
2023-05-01T22:01:28.480Z,64.78
2023-05-01T22:03:54.920Z,65.69
2023-05-01T22:06:24.456Z,66.45
2023-05-01T22:08:51.813Z,66.35
2023-05-01T22:11:18.215Z,66.51
2023-05-01T22:13:44.951Z,67.20
2023-05-01T22:16:13.777Z,66.80
2023-05-01T22:18:40.619Z,67.49
2023-05-01T22:21:07.032Z,66.83
2023-05-01T22:23:33.330Z,67.24
2023-05-01T22:26:00.294Z,67.12
2023-05-01T22:28:26.940Z,67.75
2023-05-01T22:30:53.262Z,68.25
2023-05-01T22:33:19.606Z,68.69
2023-05-01T22:35:46.189Z,68.63
2023-05-01T22:38:12.541Z,69.35
2023-05-01T22:40:38.837Z,69.16
2023-05-01T22:43:05.908Z,68.90
2023-05-01T22:45:32.234Z,69.38
2023-05-01T22:47:58.604Z,70.21
2023-05-01T22:50:24.973Z,70.08
2023-05-01T22:52:51.532Z,70.77
2023-05-01T22:55:17.857Z,72.41
2023-05-01T22:57:44.569Z,72.33
2023-05-01T23:00:12.110Z,72.30
2023-05-01T23:02:38.639Z,72.41
2023-05-01T23:05:06.824Z,73.03
2023-05-01T23:07:33.161Z,73.27
2023-05-01T23:10:00.457Z,73.22
2023-05-01T23:12:27.742Z,74.41
2023-05-01T23:14:55.096Z,74.05
2023-05-01T23:17:21.820Z,75.17
2023-05-01T23:19:50.634Z,75.15
2023-05-01T23:22:18.013Z,75.71
2023-05-01T23:24:51.000Z,76.15
2023-05-01T23:27:18.324Z,76.10
2023-05-01T23:29:57.917Z,76.27
2023-05-01T23:32:29.958Z,77.20
2023-05-01T23:35:03.303Z,77.33
2023-05-01T23:37:29.690Z,78.34
2023-05-01T23:39:58.831Z,78.22
2023-05-01T23:42:25.793Z,78.80
2023-05-01T23:44:52.415Z,79.75
2023-05-01T23:47:19.283Z,79.64
2023-05-01T23:49:46.524Z,80.45
2023-05-01T23:52:13.064Z,81.02
2023-05-01T23:54:39.461Z,81.58
2023-05-01T23:57:05.910Z,81.79
2023-05-01T23:59:32.353Z,82.55
